METAR AND TAF INFORMATION
METAR FOR LTCI
ADDS - METARS form results

(2049 UTC 18 December 2018)
Data provider http://aviationweather.gov/metar/data/
 
METAR text: LTCI 182021Z 07004KT 9999 -SHRA SCT030 BKN070 04/01 Q1024 NOSIG RMK RWY21 09003KT
Conditions at: LTCI (VAN , TR) observed 2021 UTC 18 December 2018
Temperature: 4.0°C (39°F)
Dewpoint: 1.0°C (34°F) [RH = 81%]
Pressure (altimeter): 30.24 inches Hg (1024.0 mb)
Winds: from the ENE (70 degrees) at 5 MPH (4 knots; 2.1 m/s)
Visibility: 6 or more miles (10+ km)
Ceiling: 7000 feet AGL
Clouds: scattered clouds at 3000 feet AGL
broken clouds at 7000 feet AGL
Weather: -SHRA  (light rain showers)

METAR text: LTCI 181950Z 07004KT 9999 SCT030 BKN070 04/01 Q1024 NOSIG
Conditions at: LTCI (VAN , TR) observed 1950 UTC 18 December 2018
Temperature: 4.0°C (39°F)
Dewpoint: 1.0°C (34°F) [RH = 81%]
Pressure (altimeter): 30.24 inches Hg (1024.0 mb)
Winds: from the ENE (70 degrees) at 5 MPH (4 knots; 2.1 m/s)
Visibility: 6 or more miles (10+ km)
Ceiling: 7000 feet AGL
Clouds: scattered clouds at 3000 feet AGL
broken clouds at 7000 feet AGL
Weather: no significant weather observed at this time

Forecast for: LTCI (VAN , TR)
Text: TAF LTCI 181940Z 1821/1906 09007KT 8000 SCT035 BKN070
Forecast period: 2100 UTC 18 December 2018 to 0600 UTC 19 December 2018
Forecast type: FROM: standard forecast or significant change
Winds: from the E (90 degrees) at 8 MPH (7 knots; 3.6 m/s)
Visibility: 5 miles (8 km)
Ceiling: 7000 feet AGL
Clouds: scattered clouds at 3500 feet AGL
broken clouds at 7000 feet AGL
Weather: no significant weather forecast for this period

 AIRPORT MAP

 RUNWAY INFORMATION
Runway 03 Runway length 9022 ft Runway width 148 ft
Runway elevation 5412 ft Runway displaced threshold 0 ft Runway heading 38
Runway 21 Runway length 9022 ft Runway width 148 ft
Runway elevation 5474 ft Runway displaced threshold 0 ft Runway heading 218

 AIRPORT FREQUENCIES
Type APP Name APP Frequency 118.1 MHZ
Type GND Name GND Frequency 121.9 MHZ
Type TWR Name TWR Frequency 118.1 MHZ

 AIRPORT NEAR NAVIGATION AIDS
Type VOR-DME Name Van Frequency 115200 KHZ
Type NDB Name Van Frequency 397 KHZ



Copyright © 2011 - 2018 BirgenAir Virtual Airlines. All rights reserved. Developed by Goktug Unver